EGPF

Glasgow International Airport

Glasgow, United Kingdom
TAF AMD EGPF 172137Z 1721/1818 07009KT 9999 FEW020 TEMPO 1721/1818 7000 PROB40 TEMPO 1721/1807 3000 BR BKN008
Issued Valid From Valid To
Nov-17 @ 21:37 UTC
(36 minutes ago)
Nov-17 @ 21:00 UTC
(an hour ago)
Nov-18 @ 18:00 UTC
(in 20 hours)
Nov-17 @ 21:00 to Nov-18 @ 18:00
TAF AMD EGPF 172137Z 1721/1818 07009KT 9999 FEW020
Wind Visibility Clouds
70° at 9 knots 10,000+ meters
  • Few at 2,000' AGL
Temporary  (Probability 40%) Nov-17 @ 21:00 to Nov-18 @ 07:00
PROB40 TEMPO 1721/1807 3000 BR BKN008
Visibility Clouds Conditions
2,993 meters
  • Broken at 800' AGL
  • Mist
Temporary Nov-17 @ 21:00 to Nov-18 @ 18:00
TEMPO 1721/1818 7000
Visibility
7,001 meters
TAF AMD EGPF 172137Z 1721/1818 07009KT 9999 FEW020 TEMPO 1721/1818 7000 PROB40 TEMPO 1721/1807 3000 BR BKN008
Issued Nov-17 @ 21:37 UTC
(36 minutes ago)
Valid From Nov-17 @ 21:00 UTC
(an hour ago)
Valid To Nov-18 @ 18:00 UTC
(in 20 hours)
Nov-17 @ 21:00 - Nov-18 @ 18:00
Wind Visibility
70° at 9 knots 10,000+ meters
Clouds
  • Few at 2,000' AGL
Probability 40% Temporary Nov-17 @ 21:00 - Nov-18 @ 07:00
Clouds
  • Broken at 800' AGL
Conditions
  • Mist
Temporary Nov-17 @ 21:00 - Nov-18 @ 18:00